sensor_id;sensor_type;location;lat;lon;timestamp;temperature;humidity
39371;DHT22;25099;51.946;4.838;2024-01-27T00:01:31;6.40;99.90
39371;DHT22;25099;51.946;4.838;2024-01-27T00:03:57;6.40;99.90
39371;DHT22;25099;51.946;4.838;2024-01-27T00:06:23;6.40;99.90
39371;DHT22;25099;51.946;4.838;2024-01-27T00:08:48;6.40;99.90
39371;DHT22;25099;51.946;4.838;2024-01-27T00:11:14;6.30;99.90
39371;DHT22;25099;51.946;4.838;2024-01-27T00:13:39;7.00;99.90
39371;DHT22;25099;51.946;4.838;2024-01-27T00:16:05;6.30;99.90
39371;DHT22;25099;51.946;4.838;2024-01-27T00:18:31;6.30;99.90
39371;DHT22;25099;51.946;4.838;2024-01-27T00:20:56;6.20;99.90
39371;DHT22;25099;51.946;4.838;2024-01-27T00:23:22;6.30;99.90
39371;DHT22;25099;51.946;4.838;2024-01-27T00:25:47;6.30;99.90
39371;DHT22;25099;51.946;4.838;2024-01-27T00:28:13;6.30;99.90
39371;DHT22;25099;51.946;4.838;2024-01-27T00:30:39;6.30;99.90
39371;DHT22;25099;51.946;4.838;2024-01-27T00:33:04;6.20;99.90
39371;DHT22;25099;51.946;4.838;2024-01-27T00:35:30;6.20;99.90
39371;DHT22;25099;51.946;4.838;2024-01-27T00:37:55;6.20;99.90
39371;DHT22;25099;51.946;4.838;2024-01-27T00:40:22;6.20;99.90
39371;DHT22;25099;51.946;4.838;2024-01-27T00:42:48;6.20;99.90
39371;DHT22;25099;51.946;4.838;2024-01-27T00:45:13;6.10;99.90
39371;DHT22;25099;51.946;4.838;2024-01-27T00:47:39;6.20;99.90
39371;DHT22;25099;51.946;4.838;2024-01-27T00:50:05;6.20;99.90
39371;DHT22;25099;51.946;4.838;2024-01-27T00:52:31;6.10;99.90
39371;DHT22;25099;51.946;4.838;2024-01-27T00:54:57;6.10;99.90
39371;DHT22;25099;51.946;4.838;2024-01-27T00:57:22;6.10;99.90
39371;DHT22;25099;51.946;4.838;2024-01-27T00:59:48;6.10;99.90
39371;DHT22;25099;51.946;4.838;2024-01-27T01:02:15;6.20;99.90
39371;DHT22;25099;51.946;4.838;2024-01-27T01:04:40;6.20;99.90
39371;DHT22;25099;51.946;4.838;2024-01-27T01:07:07;6.20;99.90
39371;DHT22;25099;51.946;4.838;2024-01-27T01:09:33;6.20;99.90
39371;DHT22;25099;51.946;4.838;2024-01-27T01:11:59;6.80;99.90
39371;DHT22;25099;51.946;4.838;2024-01-27T01:14:24;6.20;99.90
39371;DHT22;25099;51.946;4.838;2024-01-27T01:16:50;6.20;99.90
39371;DHT22;25099;51.946;4.838;2024-01-27T01:19:16;6.20;99.90
39371;DHT22;25099;51.946;4.838;2024-01-27T01:21:42;6.10;99.90
39371;DHT22;25099;51.946;4.838;2024-01-27T01:24:09;6.00;99.90
39371;DHT22;25099;51.946;4.838;2024-01-27T01:26:34;6.00;99.90
39371;DHT22;25099;51.946;4.838;2024-01-27T01:29:00;6.00;99.90
39371;DHT22;25099;51.946;4.838;2024-01-27T01:31:37;5.90;99.90
39371;DHT22;25099;51.946;4.838;2024-01-27T01:34:03;6.70;99.90
39371;DHT22;25099;51.946;4.838;2024-01-27T01:36:29;6.00;99.90
39371;DHT22;25099;51.946;4.838;2024-01-27T01:39:14;6.90;99.90
39371;DHT22;25099;51.946;4.838;2024-01-27T01:41:40;6.80;99.90
39371;DHT22;25099;51.946;4.838;2024-01-27T01:44:15;6.10;99.90
39371;DHT22;25099;51.946;4.838;2024-01-27T01:46:41;5.80;99.90
39371;DHT22;25099;51.946;4.838;2024-01-27T01:49:07;6.90;99.90
39371;DHT22;25099;51.946;4.838;2024-01-27T01:51:33;7.20;99.90
39371;DHT22;25099;51.946;4.838;2024-01-27T01:54:12;6.30;99.90
39371;DHT22;25099;51.946;4.838;2024-01-27T01:56:38;7.00;99.90
39371;DHT22;25099;51.946;4.838;2024-01-27T01:59:03;7.00;99.90
39371;DHT22;25099;51.946;4.838;2024-01-27T02:01:41;7.10;99.90
39371;DHT22;25099;51.946;4.838;2024-01-27T02:04:09;6.90;99.90
39371;DHT22;25099;51.946;4.838;2024-01-27T02:06:35;6.30;99.90
39371;DHT22;25099;51.946;4.838;2024-01-27T02:09:19;6.20;99.90
39371;DHT22;25099;51.946;4.838;2024-01-27T02:11:45;6.90;99.90
39371;DHT22;25099;51.946;4.838;2024-01-27T02:14:10;6.90;99.90
39371;DHT22;25099;51.946;4.838;2024-01-27T02:16:36;7.20;99.90
39371;DHT22;25099;51.946;4.838;2024-01-27T02:19:11;7.00;99.90
39371;DHT22;25099;51.946;4.838;2024-01-27T02:21:37;6.10;99.90
39371;DHT22;25099;51.946;4.838;2024-01-27T02:24:06;7.00;99.90
39371;DHT22;25099;51.946;4.838;2024-01-27T02:26:56;6.10;99.90
39371;DHT22;25099;51.946;4.838;2024-01-27T02:29:22;6.00;99.90
39371;DHT22;25099;51.946;4.838;2024-01-27T02:32:04;5.90;99.90
39371;DHT22;25099;51.946;4.838;2024-01-27T02:34:29;5.90;99.90
39371;DHT22;25099;51.946;4.838;2024-01-27T02:36:55;6.00;99.90
39371;DHT22;25099;51.946;4.838;2024-01-27T02:39:33;5.90;99.90
39371;DHT22;25099;51.946;4.838;2024-01-27T02:41:58;6.90;99.90
39371;DHT22;25099;51.946;4.838;2024-01-27T02:44:24;7.00;99.90
39371;DHT22;25099;51.946;4.838;2024-01-27T02:46:52;6.60;99.90
39371;DHT22;25099;51.946;4.838;2024-01-27T02:49:18;5.80;99.90
39371;DHT22;25099;51.946;4.838;2024-01-27T02:51:43;6.00;99.90
39371;DHT22;25099;51.946;4.838;2024-01-27T02:54:09;5.70;99.90
39371;DHT22;25099;51.946;4.838;2024-01-27T02:56:50;5.80;99.90
39371;DHT22;25099;51.946;4.838;2024-01-27T02:59:16;6.80;99.90
39371;DHT22;25099;51.946;4.838;2024-01-27T03:02:03;6.60;99.90
39371;DHT22;25099;51.946;4.838;2024-01-27T03:04:28;4.80;99.90
39371;DHT22;25099;51.946;4.838;2024-01-27T03:06:55;6.90;99.90
39371;DHT22;25099;51.946;4.838;2024-01-27T03:09:21;6.20;99.90
39371;DHT22;25099;51.946;4.838;2024-01-27T03:11:58;5.30;99.90
39371;DHT22;25099;51.946;4.838;2024-01-27T03:14:23;6.30;99.90
39371;DHT22;25099;51.946;4.838;2024-01-27T03:17:00;5.30;99.90
39371;DHT22;25099;51.946;4.838;2024-01-27T03:19:26;5.90;99.90
39371;DHT22;25099;51.946;4.838;2024-01-27T03:21:52;6.20;99.90
39371;DHT22;25099;51.946;4.838;2024-01-27T03:24:37;6.50;99.90
39371;DHT22;25099;51.946;4.838;2024-01-27T03:27:03;6.30;99.90
39371;DHT22;25099;51.946;4.838;2024-01-27T03:29:28;5.40;99.90
39371;DHT22;25099;51.946;4.838;2024-01-27T03:31:55;6.20;99.90
39371;DHT22;25099;51.946;4.838;2024-01-27T03:34:20;5.10;99.90
39371;DHT22;25099;51.946;4.838;2024-01-27T03:36:50;6.40;99.90
39371;DHT22;25099;51.946;4.838;2024-01-27T03:39:25;5.30;99.90
39371;DHT22;25099;51.946;4.838;2024-01-27T03:41:50;5.70;99.90
39371;DHT22;25099;51.946;4.838;2024-01-27T03:44:16;5.30;99.90
39371;DHT22;25099;51.946;4.838;2024-01-27T03:46:41;5.30;99.90
39371;DHT22;25099;51.946;4.838;2024-01-27T03:49:07;5.30;99.90
39371;DHT22;25099;51.946;4.838;2024-01-27T03:51:32;5.30;99.90
39371;DHT22;25099;51.946;4.838;2024-01-27T03:53:58;6.40;99.90
39371;DHT22;25099;51.946;4.838;2024-01-27T03:56:23;6.00;99.90
39371;DHT22;25099;51.946;4.838;2024-01-27T03:58:49;5.20;99.90
39371;DHT22;25099;51.946;4.838;2024-01-27T04:01:15;5.30;99.90
39371;DHT22;25099;51.946;4.838;2024-01-27T04:03:40;5.30;99.90
39371;DHT22;25099;51.946;4.838;2024-01-27T04:06:06;5.30;99.90
39371;DHT22;25099;51.946;4.838;2024-01-27T04:08:33;5.30;99.90
39371;DHT22;25099;51.946;4.838;2024-01-27T04:10:58;5.20;99.90
39371;DHT22;25099;51.946;4.838;2024-01-27T04:13:24;5.20;99.90
39371;DHT22;25099;51.946;4.838;2024-01-27T04:15:50;5.10;99.90
39371;DHT22;25099;51.946;4.838;2024-01-27T04:18:17;5.10;99.90
39371;DHT22;25099;51.946;4.838;2024-01-27T04:20:42;5.20;99.90
39371;DHT22;25099;51.946;4.838;2024-01-27T04:23:09;5.00;99.90
39371;DHT22;25099;51.946;4.838;2024-01-27T04:25:34;5.10;99.90
39371;DHT22;25099;51.946;4.838;2024-01-27T04:28:00;5.00;99.90
39371;DHT22;25099;51.946;4.838;2024-01-27T04:30:25;5.00;99.90
39371;DHT22;25099;51.946;4.838;2024-01-27T04:32:51;5.00;99.90
39371;DHT22;25099;51.946;4.838;2024-01-27T04:35:17;5.10;99.90
39371;DHT22;25099;51.946;4.838;2024-01-27T04:37:43;5.10;99.90
39371;DHT22;25099;51.946;4.838;2024-01-27T04:40:10;5.00;99.90
39371;DHT22;25099;51.946;4.838;2024-01-27T04:42:38;5.00;99.90
39371;DHT22;25099;51.946;4.838;2024-01-27T04:45:05;5.00;99.90
39371;DHT22;25099;51.946;4.838;2024-01-27T04:47:31;4.90;99.90
39371;DHT22;25099;51.946;4.838;2024-01-27T04:49:56;5.00;99.90
39371;DHT22;25099;51.946;4.838;2024-01-27T04:52:25;5.10;99.90
39371;DHT22;25099;51.946;4.838;2024-01-27T04:54:51;5.00;99.90
39371;DHT22;25099;51.946;4.838;2024-01-27T04:57:17;5.10;99.90
39371;DHT22;25099;51.946;4.838;2024-01-27T04:59:43;5.10;99.90
39371;DHT22;25099;51.946;4.838;2024-01-27T05:02:08;5.10;99.90
39371;DHT22;25099;51.946;4.838;2024-01-27T05:04:34;5.10;99.90
39371;DHT22;25099;51.946;4.838;2024-01-27T05:06:59;5.00;99.90
39371;DHT22;25099;51.946;4.838;2024-01-27T05:09:25;6.20;99.90
39371;DHT22;25099;51.946;4.838;2024-01-27T05:11:50;5.10;99.90
39371;DHT22;25099;51.946;4.838;2024-01-27T05:14:19;5.00;99.90
39371;DHT22;25099;51.946;4.838;2024-01-27T05:16:45;5.00;99.90
39371;DHT22;25099;51.946;4.838;2024-01-27T05:19:11;5.00;99.90
39371;DHT22;25099;51.946;4.838;2024-01-27T05:21:37;5.00;99.90
39371;DHT22;25099;51.946;4.838;2024-01-27T05:24:03;5.00;99.90
39371;DHT22;25099;51.946;4.838;2024-01-27T05:26:29;5.10;99.90
39371;DHT22;25099;51.946;4.838;2024-01-27T05:28:54;5.10;99.90
39371;DHT22;25099;51.946;4.838;2024-01-27T05:31:20;5.10;99.90
39371;DHT22;25099;51.946;4.838;2024-01-27T05:33:46;5.50;99.90
39371;DHT22;25099;51.946;4.838;2024-01-27T05:36:11;5.10;99.90
39371;DHT22;25099;51.946;4.838;2024-01-27T05:38:37;5.10;99.90
39371;DHT22;25099;51.946;4.838;2024-01-27T05:41:03;5.20;99.90
39371;DHT22;25099;51.946;4.838;2024-01-27T05:43:29;5.10;99.90
39371;DHT22;25099;51.946;4.838;2024-01-27T05:45:55;5.20;99.90
39371;DHT22;25099;51.946;4.838;2024-01-27T05:48:20;5.20;99.90
39371;DHT22;25099;51.946;4.838;2024-01-27T05:50:59;5.20;99.90
39371;DHT22;25099;51.946;4.838;2024-01-27T05:53:25;5.20;99.90
39371;DHT22;25099;51.946;4.838;2024-01-27T05:55:51;6.30;99.90
39371;DHT22;25099;51.946;4.838;2024-01-27T05:58:18;5.20;99.90
39371;DHT22;25099;51.946;4.838;2024-01-27T06:00:47;5.20;99.90
39371;DHT22;25099;51.946;4.838;2024-01-27T06:03:12;5.00;99.90
39371;DHT22;25099;51.946;4.838;2024-01-27T06:05:38;5.10;99.90
39371;DHT22;25099;51.946;4.838;2024-01-27T06:08:05;5.00;99.90
39371;DHT22;25099;51.946;4.838;2024-01-27T06:10:30;5.00;99.90
39371;DHT22;25099;51.946;4.838;2024-01-27T06:12:57;5.00;99.90
39371;DHT22;25099;51.946;4.838;2024-01-27T06:15:22;5.20;99.90
39371;DHT22;25099;51.946;4.838;2024-01-27T06:17:48;5.00;99.90
39371;DHT22;25099;51.946;4.838;2024-01-27T06:20:15;5.10;99.90
39371;DHT22;25099;51.946;4.838;2024-01-27T06:22:44;5.00;99.90
39371;DHT22;25099;51.946;4.838;2024-01-27T06:25:09;5.00;99.90
39371;DHT22;25099;51.946;4.838;2024-01-27T06:27:37;4.90;99.90
39371;DHT22;25099;51.946;4.838;2024-01-27T06:30:07;5.00;99.90
39371;DHT22;25099;51.946;4.838;2024-01-27T06:32:33;5.00;99.90
39371;DHT22;25099;51.946;4.838;2024-01-27T06:34:58;4.90;99.90
39371;DHT22;25099;51.946;4.838;2024-01-27T06:37:24;4.80;99.90
39371;DHT22;25099;51.946;4.838;2024-01-27T06:39:49;4.90;99.90
39371;DHT22;25099;51.946;4.838;2024-01-27T06:42:15;4.90;99.90
39371;DHT22;25099;51.946;4.838;2024-01-27T06:44:42;4.90;99.90
39371;DHT22;25099;51.946;4.838;2024-01-27T06:47:08;4.90;99.90
39371;DHT22;25099;51.946;4.838;2024-01-27T06:49:34;4.80;99.90
39371;DHT22;25099;51.946;4.838;2024-01-27T06:52:00;4.80;99.90
39371;DHT22;25099;51.946;4.838;2024-01-27T06:54:26;4.80;99.90
39371;DHT22;25099;51.946;4.838;2024-01-27T06:56:51;4.90;99.90
39371;DHT22;25099;51.946;4.838;2024-01-27T06:59:17;4.80;99.90
39371;DHT22;25099;51.946;4.838;2024-01-27T07:01:46;4.80;99.90
39371;DHT22;25099;51.946;4.838;2024-01-27T07:04:13;4.80;99.90
39371;DHT22;25099;51.946;4.838;2024-01-27T07:06:39;4.80;99.90
39371;DHT22;25099;51.946;4.838;2024-01-27T07:09:04;4.80;99.90
39371;DHT22;25099;51.946;4.838;2024-01-27T07:11:32;4.70;99.90
39371;DHT22;25099;51.946;4.838;2024-01-27T07:13:58;4.60;99.90
39371;DHT22;25099;51.946;4.838;2024-01-27T07:16:24;4.70;99.90
39371;DHT22;25099;51.946;4.838;2024-01-27T07:18:50;4.60;99.90
39371;DHT22;25099;51.946;4.838;2024-01-27T07:21:16;5.10;99.90
39371;DHT22;25099;51.946;4.838;2024-01-27T07:23:45;4.60;99.90
39371;DHT22;25099;51.946;4.838;2024-01-27T07:26:11;4.60;99.90
39371;DHT22;25099;51.946;4.838;2024-01-27T07:28:37;5.70;99.90
39371;DHT22;25099;51.946;4.838;2024-01-27T07:31:03;4.60;99.90
39371;DHT22;25099;51.946;4.838;2024-01-27T07:33:28;4.60;99.90
39371;DHT22;25099;51.946;4.838;2024-01-27T07:35:55;4.60;99.90
39371;DHT22;25099;51.946;4.838;2024-01-27T07:38:20;4.50;99.90
39371;DHT22;25099;51.946;4.838;2024-01-27T07:40:46;4.50;99.90
39371;DHT22;25099;51.946;4.838;2024-01-27T07:43:12;4.50;99.90
39371;DHT22;25099;51.946;4.838;2024-01-27T07:45:37;4.50;99.90
39371;DHT22;25099;51.946;4.838;2024-01-27T07:48:03;4.50;99.90
39371;DHT22;25099;51.946;4.838;2024-01-27T07:50:29;4.50;99.90
39371;DHT22;25099;51.946;4.838;2024-01-27T07:52:55;4.50;99.90
39371;DHT22;25099;51.946;4.838;2024-01-27T07:55:20;4.60;99.90
39371;DHT22;25099;51.946;4.838;2024-01-27T07:57:58;4.50;99.90
39371;DHT22;25099;51.946;4.838;2024-01-27T08:00:23;4.30;99.90
39371;DHT22;25099;51.946;4.838;2024-01-27T08:02:49;4.30;99.90
39371;DHT22;25099;51.946;4.838;2024-01-27T08:05:14;5.50;99.90
39371;DHT22;25099;51.946;4.838;2024-01-27T08:07:40;4.60;99.90
39371;DHT22;25099;51.946;4.838;2024-01-27T08:10:06;5.50;99.90
39371;DHT22;25099;51.946;4.838;2024-01-27T08:12:36;4.60;99.90
39371;DHT22;25099;51.946;4.838;2024-01-27T08:15:02;4.70;99.90
39371;DHT22;25099;51.946;4.838;2024-01-27T08:17:27;4.70;99.90
39371;DHT22;25099;51.946;4.838;2024-01-27T08:19:53;6.00;99.90
39371;DHT22;25099;51.946;4.838;2024-01-27T08:22:19;4.60;99.90
39371;DHT22;25099;51.946;4.838;2024-01-27T08:24:47;6.00;99.90
39371;DHT22;25099;51.946;4.838;2024-01-27T08:27:13;5.60;99.90
39371;DHT22;25099;51.946;4.838;2024-01-27T08:29:38;4.70;99.90
39371;DHT22;25099;51.946;4.838;2024-01-27T08:32:04;5.90;99.90
39371;DHT22;25099;51.946;4.838;2024-01-27T08:34:30;4.80;99.90
39371;DHT22;25099;51.946;4.838;2024-01-27T08:37:01;5.80;99.90
39371;DHT22;25099;51.946;4.838;2024-01-27T08:39:27;5.80;99.90
39371;DHT22;25099;51.946;4.838;2024-01-27T08:41:53;6.10;99.90
39371;DHT22;25099;51.946;4.838;2024-01-27T08:44:18;4.90;99.90
39371;DHT22;25099;51.946;4.838;2024-01-27T08:46:45;5.70;99.90
39371;DHT22;25099;51.946;4.838;2024-01-27T08:49:11;4.80;99.90
39371;DHT22;25099;51.946;4.838;2024-01-27T08:51:36;5.70;99.90
39371;DHT22;25099;51.946;4.838;2024-01-27T08:54:02;5.70;99.90
39371;DHT22;25099;51.946;4.838;2024-01-27T08:56:28;4.90;99.90
39371;DHT22;25099;51.946;4.838;2024-01-27T08:58:54;6.00;99.90
39371;DHT22;25099;51.946;4.838;2024-01-27T09:01:19;6.10;99.90
39371;DHT22;25099;51.946;4.838;2024-01-27T09:03:45;4.80;99.90
39371;DHT22;25099;51.946;4.838;2024-01-27T09:06:11;4.80;99.90
39371;DHT22;25099;51.946;4.838;2024-01-27T09:08:37;4.80;99.90
39371;DHT22;25099;51.946;4.838;2024-01-27T09:11:02;4.80;99.90
39371;DHT22;25099;51.946;4.838;2024-01-27T09:13:28;4.80;99.90
39371;DHT22;25099;51.946;4.838;2024-01-27T09:15:54;4.80;99.90
39371;DHT22;25099;51.946;4.838;2024-01-27T09:18:20;4.80;99.90
39371;DHT22;25099;51.946;4.838;2024-01-27T09:20:45;4.80;99.90
39371;DHT22;25099;51.946;4.838;2024-01-27T09:23:11;4.80;99.90
39371;DHT22;25099;51.946;4.838;2024-01-27T09:25:37;4.80;99.90
39371;DHT22;25099;51.946;4.838;2024-01-27T09:28:02;4.80;99.90
39371;DHT22;25099;51.946;4.838;2024-01-27T09:30:30;4.90;99.90
39371;DHT22;25099;51.946;4.838;2024-01-27T09:32:55;4.90;99.90
39371;DHT22;25099;51.946;4.838;2024-01-27T09:35:21;4.90;99.90
39371;DHT22;25099;51.946;4.838;2024-01-27T09:37:46;4.90;99.90
39371;DHT22;25099;51.946;4.838;2024-01-27T09:40:12;5.00;99.90
39371;DHT22;25099;51.946;4.838;2024-01-27T09:42:38;5.00;99.90
39371;DHT22;25099;51.946;4.838;2024-01-27T09:45:05;5.00;99.90
39371;DHT22;25099;51.946;4.838;2024-01-27T09:47:31;5.00;99.90
39371;DHT22;25099;51.946;4.838;2024-01-27T09:49:56;5.10;99.90
39371;DHT22;25099;51.946;4.838;2024-01-27T09:52:22;5.10;99.90
39371;DHT22;25099;51.946;4.838;2024-01-27T09:54:48;6.10;99.90
39371;DHT22;25099;51.946;4.838;2024-01-27T09:57:14;5.20;99.90
39371;DHT22;25099;51.946;4.838;2024-01-27T09:59:43;5.20;99.90
39371;DHT22;25099;51.946;4.838;2024-01-27T10:02:11;5.20;99.90
39371;DHT22;25099;51.946;4.838;2024-01-27T10:04:41;6.30;99.90
39371;DHT22;25099;51.946;4.838;2024-01-27T10:07:07;5.30;99.90
39371;DHT22;25099;51.946;4.838;2024-01-27T10:09:33;5.30;99.90
39371;DHT22;25099;51.946;4.838;2024-01-27T10:12:01;5.30;99.90
39371;DHT22;25099;51.946;4.838;2024-01-27T10:14:37;5.40;99.90
39371;DHT22;25099;51.946;4.838;2024-01-27T10:17:03;5.40;99.90
39371;DHT22;25099;51.946;4.838;2024-01-27T10:19:29;5.50;99.90
39371;DHT22;25099;51.946;4.838;2024-01-27T10:22:00;6.30;99.90
39371;DHT22;25099;51.946;4.838;2024-01-27T10:24:27;5.50;99.90
39371;DHT22;25099;51.946;4.838;2024-01-27T10:26:59;5.60;99.90
39371;DHT22;25099;51.946;4.838;2024-01-27T10:29:25;5.70;99.90
39371;DHT22;25099;51.946;4.838;2024-01-27T10:31:50;5.70;99.90
39371;DHT22;25099;51.946;4.838;2024-01-27T10:34:19;5.70;99.90
39371;DHT22;25099;51.946;4.838;2024-01-27T10:36:46;5.80;99.90
39371;DHT22;25099;51.946;4.838;2024-01-27T10:39:21;5.80;99.90
39371;DHT22;25099;51.946;4.838;2024-01-27T10:41:48;5.80;99.90
39371;DHT22;25099;51.946;4.838;2024-01-27T10:44:15;5.90;99.90
39371;DHT22;25099;51.946;4.838;2024-01-27T10:46:46;5.90;99.90
39371;DHT22;25099;51.946;4.838;2024-01-27T10:49:14;5.90;99.90
39371;DHT22;25099;51.946;4.838;2024-01-27T10:51:45;6.00;99.90
39371;DHT22;25099;51.946;4.838;2024-01-27T10:54:14;6.20;99.90
39371;DHT22;25099;51.946;4.838;2024-01-27T10:56:43;6.10;99.90
39371;DHT22;25099;51.946;4.838;2024-01-27T10:59:11;6.10;99.90
39371;DHT22;25099;51.946;4.838;2024-01-27T11:01:40;6.10;99.90
39371;DHT22;25099;51.946;4.838;2024-01-27T11:04:06;6.10;99.90
39371;DHT22;25099;51.946;4.838;2024-01-27T11:06:34;6.30;99.90
39371;DHT22;25099;51.946;4.838;2024-01-27T11:09:01;6.30;99.90
39371;DHT22;25099;51.946;4.838;2024-01-27T11:11:29;7.00;99.90
39371;DHT22;25099;51.946;4.838;2024-01-27T11:13:54;6.40;99.90
39371;DHT22;25099;51.946;4.838;2024-01-27T11:16:20;6.40;99.90
39371;DHT22;25099;51.946;4.838;2024-01-27T11:18:48;6.40;99.90
39371;DHT22;25099;51.946;4.838;2024-01-27T11:21:15;6.40;99.90
39371;DHT22;25099;51.946;4.838;2024-01-27T11:23:44;6.40;99.90
39371;DHT22;25099;51.946;4.838;2024-01-27T11:26:20;6.50;99.90
39371;DHT22;25099;51.946;4.838;2024-01-27T11:28:47;6.50;99.90
39371;DHT22;25099;51.946;4.838;2024-01-27T11:31:17;6.50;99.90
39371;DHT22;25099;51.946;4.838;2024-01-27T11:33:46;6.60;99.90
39371;DHT22;25099;51.946;4.838;2024-01-27T11:36:22;6.60;99.90
39371;DHT22;25099;51.946;4.838;2024-01-27T11:38:49;6.70;99.90
39371;DHT22;25099;51.946;4.838;2024-01-27T11:41:29;6.70;99.90
39371;DHT22;25099;51.946;4.838;2024-01-27T11:43:56;6.70;99.90
39371;DHT22;25099;51.946;4.838;2024-01-27T11:46:22;6.70;99.90
39371;DHT22;25099;51.946;4.838;2024-01-27T11:48:48;6.70;99.90
39371;DHT22;25099;51.946;4.838;2024-01-27T11:51:14;6.80;99.90
39371;DHT22;25099;51.946;4.838;2024-01-27T11:53:40;6.90;99.90
39371;DHT22;25099;51.946;4.838;2024-01-27T11:56:06;6.90;99.90
39371;DHT22;25099;51.946;4.838;2024-01-27T11:58:32;6.90;99.90
39371;DHT22;25099;51.946;4.838;2024-01-27T12:00:58;6.90;99.90
39371;DHT22;25099;51.946;4.838;2024-01-27T12:03:27;7.00;99.90
39371;DHT22;25099;51.946;4.838;2024-01-27T12:05:53;7.00;99.90
39371;DHT22;25099;51.946;4.838;2024-01-27T12:08:19;7.10;99.90
39371;DHT22;25099;51.946;4.838;2024-01-27T12:10:45;7.20;99.90
39371;DHT22;25099;51.946;4.838;2024-01-27T12:13:11;7.10;99.90
39371;DHT22;25099;51.946;4.838;2024-01-27T12:15:36;7.20;99.90
39371;DHT22;25099;51.946;4.838;2024-01-27T12:18:04;8.00;99.90
39371;DHT22;25099;51.946;4.838;2024-01-27T12:20:30;7.30;99.90
39371;DHT22;25099;51.946;4.838;2024-01-27T12:23:05;7.40;99.90
39371;DHT22;25099;51.946;4.838;2024-01-27T12:25:31;7.30;99.90
39371;DHT22;25099;51.946;4.838;2024-01-27T12:27:57;7.40;99.90
39371;DHT22;25099;51.946;4.838;2024-01-27T12:30:26;7.40;99.90
39371;DHT22;25099;51.946;4.838;2024-01-27T12:32:52;7.40;99.90
39371;DHT22;25099;51.946;4.838;2024-01-27T12:35:18;7.50;99.90
39371;DHT22;25099;51.946;4.838;2024-01-27T12:37:44;7.60;99.90
39371;DHT22;25099;51.946;4.838;2024-01-27T12:40:19;7.50;99.90
39371;DHT22;25099;51.946;4.838;2024-01-27T12:42:46;7.60;99.90
39371;DHT22;25099;51.946;4.838;2024-01-27T12:45:11;7.50;99.90
39371;DHT22;25099;51.946;4.838;2024-01-27T12:47:37;7.50;99.90
39371;DHT22;25099;51.946;4.838;2024-01-27T12:50:03;7.50;99.90
39371;DHT22;25099;51.946;4.838;2024-01-27T12:52:28;7.50;99.90
39371;DHT22;25099;51.946;4.838;2024-01-27T12:54:54;8.10;99.90
39371;DHT22;25099;51.946;4.838;2024-01-27T12:57:20;7.50;99.90
39371;DHT22;25099;51.946;4.838;2024-01-27T12:59:45;7.50;99.90
39371;DHT22;25099;51.946;4.838;2024-01-27T13:02:11;7.50;99.90
39371;DHT22;25099;51.946;4.838;2024-01-27T13:04:36;7.50;99.90
39371;DHT22;25099;51.946;4.838;2024-01-27T13:07:02;7.50;99.90
39371;DHT22;25099;51.946;4.838;2024-01-27T13:09:28;7.60;99.90
39371;DHT22;25099;51.946;4.838;2024-01-27T13:11:53;7.60;99.90
39371;DHT22;25099;51.946;4.838;2024-01-27T13:14:19;7.60;99.90
39371;DHT22;25099;51.946;4.838;2024-01-27T13:16:46;7.60;99.90
39371;DHT22;25099;51.946;4.838;2024-01-27T13:19:11;7.70;99.90
39371;DHT22;25099;51.946;4.838;2024-01-27T13:21:37;7.70;99.90
39371;DHT22;25099;51.946;4.838;2024-01-27T13:24:03;7.70;99.90
39371;DHT22;25099;51.946;4.838;2024-01-27T13:26:29;7.80;99.90
39371;DHT22;25099;51.946;4.838;2024-01-27T13:28:56;7.80;99.90
39371;DHT22;25099;51.946;4.838;2024-01-27T13:31:21;7.90;99.90
39371;DHT22;25099;51.946;4.838;2024-01-27T13:33:47;7.90;99.90
39371;DHT22;25099;51.946;4.838;2024-01-27T13:36:13;8.00;99.90
39371;DHT22;25099;51.946;4.838;2024-01-27T13:38:38;8.00;99.90
39371;DHT22;25099;51.946;4.838;2024-01-27T13:41:04;8.00;99.90
39371;DHT22;25099;51.946;4.838;2024-01-27T13:43:29;8.00;99.90
39371;DHT22;25099;51.946;4.838;2024-01-27T13:45:55;8.00;99.90
39371;DHT22;25099;51.946;4.838;2024-01-27T13:48:21;8.10;99.90
39371;DHT22;25099;51.946;4.838;2024-01-27T13:50:46;8.10;99.90
39371;DHT22;25099;51.946;4.838;2024-01-27T13:53:12;8.10;99.90
39371;DHT22;25099;51.946;4.838;2024-01-27T13:55:37;8.10;99.90
39371;DHT22;25099;51.946;4.838;2024-01-27T13:58:05;8.10;99.90
39371;DHT22;25099;51.946;4.838;2024-01-27T14:00:31;8.10;99.90
39371;DHT22;25099;51.946;4.838;2024-01-27T14:02:59;8.10;99.90
39371;DHT22;25099;51.946;4.838;2024-01-27T14:05:25;8.10;99.90
39371;DHT22;25099;51.946;4.838;2024-01-27T14:07:50;8.10;99.90
39371;DHT22;25099;51.946;4.838;2024-01-27T14:10:16;8.00;99.90
39371;DHT22;25099;51.946;4.838;2024-01-27T14:12:42;9.10;99.90
39371;DHT22;25099;51.946;4.838;2024-01-27T14:15:08;8.00;99.90
39371;DHT22;25099;51.946;4.838;2024-01-27T14:17:35;8.00;99.90
39371;DHT22;25099;51.946;4.838;2024-01-27T14:20:02;8.00;99.90
39371;DHT22;25099;51.946;4.838;2024-01-27T14:22:28;8.00;99.90
39371;DHT22;25099;51.946;4.838;2024-01-27T14:24:54;8.00;99.90
39371;DHT22;25099;51.946;4.838;2024-01-27T14:27:20;8.00;99.90
39371;DHT22;25099;51.946;4.838;2024-01-27T14:29:52;8.80;99.90
39371;DHT22;25099;51.946;4.838;2024-01-27T14:32:18;8.10;99.90
39371;DHT22;25099;51.946;4.838;2024-01-27T14:34:44;8.00;99.90
39371;DHT22;25099;51.946;4.838;2024-01-27T14:37:09;8.10;99.90
39371;DHT22;25099;51.946;4.838;2024-01-27T14:39:35;8.10;99.90
39371;DHT22;25099;51.946;4.838;2024-01-27T14:42:02;8.10;99.90
39371;DHT22;25099;51.946;4.838;2024-01-27T14:44:30;8.00;99.90
39371;DHT22;25099;51.946;4.838;2024-01-27T14:46:55;8.00;99.90
39371;DHT22;25099;51.946;4.838;2024-01-27T14:49:21;8.10;99.90
39371;DHT22;25099;51.946;4.838;2024-01-27T14:51:47;8.00;99.90
39371;DHT22;25099;51.946;4.838;2024-01-27T14:54:13;8.00;99.90
39371;DHT22;25099;51.946;4.838;2024-01-27T14:56:38;7.90;99.90
39371;DHT22;25099;51.946;4.838;2024-01-27T14:59:04;7.90;99.90
39371;DHT22;25099;51.946;4.838;2024-01-27T15:01:33;7.90;99.90
39371;DHT22;25099;51.946;4.838;2024-01-27T15:03:58;7.90;99.90
39371;DHT22;25099;51.946;4.838;2024-01-27T15:06:26;7.90;99.90
39371;DHT22;25099;51.946;4.838;2024-01-27T15:08:52;7.90;99.90
39371;DHT22;25099;51.946;4.838;2024-01-27T15:11:18;7.90;99.90
39371;DHT22;25099;51.946;4.838;2024-01-27T15:13:43;7.90;99.90
39371;DHT22;25099;51.946;4.838;2024-01-27T15:16:09;7.90;99.90
39371;DHT22;25099;51.946;4.838;2024-01-27T15:18:35;7.90;99.90
39371;DHT22;25099;51.946;4.838;2024-01-27T15:21:03;7.90;99.90
39371;DHT22;25099;51.946;4.838;2024-01-27T15:23:28;7.90;99.90
39371;DHT22;25099;51.946;4.838;2024-01-27T15:25:54;7.90;99.90
39371;DHT22;25099;51.946;4.838;2024-01-27T15:28:20;7.80;99.90
39371;DHT22;25099;51.946;4.838;2024-01-27T15:30:46;7.80;99.90
39371;DHT22;25099;51.946;4.838;2024-01-27T15:33:14;7.90;99.90
39371;DHT22;25099;51.946;4.838;2024-01-27T15:35:40;7.90;99.90
39371;DHT22;25099;51.946;4.838;2024-01-27T15:38:06;7.80;99.90
39371;DHT22;25099;51.946;4.838;2024-01-27T15:40:31;7.80;99.90
39371;DHT22;25099;51.946;4.838;2024-01-27T15:42:57;7.80;99.90